Time;durP1;ratioP1;P1;durP2;ratioP2;P2;SDS_P1;SDS_P2;PMS_P1;PMS_P2;Temp;Humidity;BMP_temperature;BMP_pressure;BME280_temperature;BME280_humidity;BME280_pressure;Samples;Min_cycle;Max_cycle;Signal;HPM_P1;HPM_P2
2023/07/15 00:01:34;;;;;;;2.55;1.48;;;17.90;70.20;18.00;100283.00;;;;4949325;28;87345;-69
2023/07/15 00:04:00;;;;;;;3.75;1.77;;;17.90;70.60;18.00;100280.00;;;;4983356;28;88344;-69
2023/07/15 00:06:26;;;;;;;1.88;1.60;;;17.80;70.50;18.00;100272.00;;;;4980564;28;87806;-70
2023/07/15 00:08:54;;;;;;;3.80;1.25;;;17.90;70.60;18.10;100278.00;;;;4963191;28;87048;-69
2023/07/15 00:11:33;;;;;;;4.75;1.95;;;17.90;70.70;18.10;100270.00;;;;4979206;28;87405;-70
2023/07/15 00:14:00;;;;;;;1.38;1.27;;;18.00;71.00;18.20;100273.00;;;;4984329;28;87519;-69
2023/07/15 00:16:29;;;;;;;3.33;2.08;;;18.00;70.80;18.20;100267.00;;;;4964649;28;87339;-69
2023/07/15 00:18:55;;;;;;;2.25;1.52;;;18.10;70.90;18.20;100260.00;;;;4975269;28;87322;-68
2023/07/15 00:21:25;;;;;;;2.03;1.33;;;18.10;71.00;18.30;100265.00;;;;4982583;28;86405;-69
2023/07/15 00:23:58;;;;;;;1.33;1.23;;;18.10;71.30;18.30;100263.00;;;;4979459;28;87103;-69
2023/07/15 00:26:29;;;;;;;1.42;1.33;;;18.20;71.50;18.30;100249.00;;;;4964324;28;87875;-70
2023/07/15 00:28:55;;;;;;;1.60;1.50;;;18.20;71.70;18.30;100255.00;;;;4979407;28;88571;-69
2023/07/15 00:31:23;;;;;;;2.00;1.23;;;18.20;72.00;18.30;100252.00;;;;4979131;28;87270;-69
2023/07/15 00:33:49;;;;;;;2.90;2.15;;;18.20;72.30;18.20;100247.00;;;;4965206;28;87580;-68
2023/07/15 00:36:16;;;;;;;4.13;1.77;;;18.20;72.70;18.20;100248.00;;;;4990269;28;87734;-68
2023/07/15 00:38:43;;;;;;;2.05;1.50;;;18.10;73.10;18.10;100243.00;;;;4982678;28;87239;-69
2023/07/15 00:41:37;;;;;;;2.78;1.48;;;18.00;73.50;17.90;100242.00;;;;4979279;28;87297;-69
2023/07/15 00:44:05;;;;;;;2.58;1.85;;;17.90;73.90;17.90;100235.00;;;;4967934;28;87608;-69
2023/07/15 00:47:14;;;;;;;4.63;1.70;;;17.80;74.30;17.80;100238.00;;;;4978135;28;86690;-69
2023/07/15 00:49:41;;;;;;;1.67;1.58;;;17.70;74.70;17.70;100227.00;;;;4983089;28;87421;-69
2023/07/15 00:52:16;;;;;;;2.08;1.58;;;17.70;75.00;17.70;100233.00;;;;4975031;28;86998;-69
2023/07/15 00:54:52;;;;;;;2.03;1.30;;;17.60;75.50;17.60;100237.00;;;;4960025;28;88579;-69
2023/07/15 00:57:20;;;;;;;3.95;1.83;;;17.50;75.90;17.50;100235.00;;;;4984293;28;87577;-69
2023/07/15 00:59:48;;;;;;;2.55;2.08;;;17.50;76.20;17.50;100230.00;;;;4992664;27;87416;-69
2023/07/15 01:02:15;;;;;;;3.00;2.15;;;17.40;76.50;17.40;100225.00;;;;4969843;28;87530;-69
2023/07/15 01:04:41;;;;;;;1.55;1.45;;;17.40;76.80;17.40;100222.00;;;;4980270;28;87085;-69
2023/07/15 01:07:07;;;;;;;1.73;1.40;;;17.20;77.10;17.30;100220.00;;;;4986126;28;87408;-70
2023/07/15 01:09:34;;;;;;;2.60;1.45;;;17.30;77.70;17.30;100225.00;;;;4979693;28;87295;-69
2023/07/15 01:12:00;;;;;;;3.22;1.65;;;17.20;77.90;17.20;100224.00;;;;4985610;28;86539;-71
2023/07/15 01:14:30;;;;;;;2.70;1.88;;;17.10;78.20;17.20;100221.00;;;;4977834;28;87356;-69
2023/07/15 01:16:56;;;;;;;2.40;1.92;;;17.10;78.60;17.10;100220.00;;;;4991679;27;89788;-69
2023/07/15 01:19:22;;;;;;;3.10;1.98;;;17.00;79.10;17.00;100219.00;;;;4978673;28;88076;-69
2023/07/15 01:21:49;;;;;;;2.20;1.65;;;17.00;79.90;16.90;100212.00;;;;4984269;28;87337;-70
2023/07/15 01:24:17;;;;;;;1.42;1.23;;;16.90;80.60;16.80;100213.00;;;;4948993;28;87156;-69
2023/07/15 01:26:43;;;;;;;2.10;1.88;;;16.80;81.00;16.80;100208.00;;;;4977339;28;87923;-69
2023/07/15 01:29:09;;;;;;;2.60;1.42;;;16.70;81.40;16.70;100222.00;;;;4974515;28;87752;-70
2023/07/15 01:31:36;;;;;;;1.85;1.25;;;16.70;81.80;16.70;100225.00;;;;4967902;28;87086;-70
2023/07/15 01:34:02;;;;;;;2.08;1.52;;;16.60;82.00;16.60;100228.00;;;;4977166;28;87797;-69
2023/07/15 01:36:28;;;;;;;1.90;1.50;;;16.60;82.30;16.60;100220.00;;;;4977934;28;86291;-69
2023/07/15 01:38:54;;;;;;;4.82;1.70;;;16.50;82.50;16.50;100211.00;;;;4973226;28;87354;-68
2023/07/15 01:41:20;;;;;;;4.45;2.45;;;16.50;83.10;16.50;100215.00;;;;4987139;28;86988;-69
2023/07/15 01:43:45;;;;;;;5.72;1.77;;;16.40;83.60;16.40;100219.00;;;;4982740;28;88309;-70
2023/07/15 01:46:11;;;;;;;2.30;1.52;;;16.40;84.00;16.40;100204.00;;;;4981632;27;88605;-70
2023/07/15 01:48:37;;;;;;;2.63;2.03;;;16.30;84.30;16.30;100198.00;;;;4982088;28;87265;-69
2023/07/15 01:51:03;;;;;;;2.35;1.73;;;16.30;84.60;16.30;100202.00;;;;4987964;28;86926;-69
2023/07/15 01:53:29;;;;;;;2.60;2.00;;;16.20;84.90;16.20;100199.00;;;;4982791;28;86946;-70
2023/07/15 01:55:55;;;;;;;2.95;1.60;;;16.20;85.30;16.20;100196.00;;;;4977364;28;87598;-69
2023/07/15 01:58:21;;;;;;;2.28;1.65;;;16.10;85.40;16.10;100191.00;;;;4990651;27;89510;-69
2023/07/15 02:00:48;;;;;;;2.30;1.67;;;16.10;85.60;16.10;100188.00;;;;4976923;28;86411;-69
2023/07/15 02:03:15;;;;;;;1.73;1.55;;;16.00;85.70;16.10;100190.00;;;;4977207;28;87330;-68
2023/07/15 02:05:41;;;;;;;2.08;1.80;;;16.00;86.00;16.00;100195.00;;;;4973404;28;87467;-68
2023/07/15 02:08:07;;;;;;;4.85;2.08;;;16.00;86.40;16.00;100188.00;;;;4981984;28;89413;-69
2023/07/15 02:10:32;;;;;;;2.17;1.60;;;16.00;86.70;16.00;100191.00;;;;4985764;28;87137;-69
2023/07/15 02:12:58;;;;;;;1.70;1.60;;;15.90;87.10;15.90;100188.00;;;;4965241;28;87527;-70
2023/07/15 02:15:24;;;;;;;5.40;2.47;;;15.90;87.60;15.90;100191.00;;;;4985158;28;87579;-69
2023/07/15 02:17:50;;;;;;;2.00;1.90;;;15.80;87.90;15.90;100186.00;;;;4989523;28;87283;-69
2023/07/15 02:20:16;;;;;;;2.55;1.77;;;15.80;88.30;15.80;100182.00;;;;4984607;28;87421;-68
2023/07/15 02:22:42;;;;;;;2.17;1.80;;;15.80;88.70;15.80;100184.00;;;;4980523;28;87795;-68
2023/07/15 02:25:09;;;;;;;2.85;2.15;;;15.70;89.00;15.80;100193.00;;;;4965117;28;88716;-69
2023/07/15 02:27:34;;;;;;;2.45;1.80;;;15.70;89.10;15.80;100173.00;;;;4958175;28;87891;-68
2023/07/15 02:30:00;;;;;;;4.20;2.10;;;15.70;89.30;15.70;100171.00;;;;4973462;28;87819;-69
2023/07/15 02:32:41;;;;;;;2.08;1.65;;;15.70;89.40;15.70;100165.00;;;;4977894;28;88056;-68
2023/07/15 02:35:13;;;;;;;1.88;1.77;;;15.60;89.70;15.70;100166.00;;;;4957751;28;89387;-69
2023/07/15 02:37:42;;;;;;;2.85;2.10;;;15.60;89.90;15.70;100169.00;;;;4975925;28;87452;-71
2023/07/15 02:40:12;;;;;;;2.95;2.17;;;15.60;90.00;15.60;100171.00;;;;4982312;28;87125;-69
2023/07/15 02:42:38;;;;;;;2.45;1.70;;;15.60;90.20;15.60;100170.00;;;;4983958;28;87087;-69
2023/07/15 02:45:09;;;;;;;2.50;2.25;;;15.50;90.40;15.60;100166.00;;;;4979807;28;87073;-69
2023/07/15 02:47:36;;;;;;;2.38;1.52;;;15.50;90.60;15.50;100161.00;;;;4980162;28;87485;-69
2023/07/15 02:50:07;;;;;;;3.03;1.63;;;15.50;90.80;15.50;100168.00;;;;4980135;28;86818;-69
2023/07/15 02:52:35;;;;;;;6.15;2.40;;;15.40;90.90;15.50;100180.00;;;;4977248;28;87344;-70
2023/07/15 02:55:02;;;;;;;2.42;1.83;;;15.40;91.00;15.50;100182.00;;;;4974056;28;87702;-70
2023/07/15 02:57:29;;;;;;;3.75;1.90;;;15.40;90.90;15.40;100178.00;;;;4977872;28;88120;-69
2023/07/15 02:59:58;;;;;;;2.58;1.83;;;15.40;90.90;15.40;100188.00;;;;4959418;28;87652;-71
2023/07/15 03:02:24;;;;;;;1.38;1.27;;;15.40;91.00;15.40;100185.00;;;;4978440;28;90005;-69
2023/07/15 03:04:51;;;;;;;4.25;1.83;;;15.40;91.10;15.40;100181.00;;;;4961775;28;89449;-71
2023/07/15 03:07:18;;;;;;;2.08;1.88;;;15.40;91.10;15.40;100180.00;;;;4960493;28;87424;-69
2023/07/15 03:09:44;;;;;;;2.10;1.77;;;15.40;91.30;15.40;100174.00;;;;4972239;28;87206;-69
2023/07/15 03:12:11;;;;;;;1.90;1.80;;;15.40;91.40;15.40;100176.00;;;;4976686;28;87639;-69
2023/07/15 03:14:38;;;;;;;3.05;2.63;;;15.30;91.50;15.40;100177.00;;;;4960182;28;86896;-69
2023/07/15 03:17:04;;;;;;;2.45;1.80;;;15.30;91.70;15.30;100176.00;;;;4976041;28;87359;-70
2023/07/15 03:19:31;;;;;;;2.10;1.90;;;15.30;91.90;15.30;100176.00;;;;4978267;28;87087;-70
2023/07/15 03:21:58;;;;;;;2.20;2.03;;;15.30;92.10;15.30;100178.00;;;;4974243;28;88063;-69
2023/07/15 03:24:27;;;;;;;1.58;1.48;;;15.20;92.30;15.20;100171.00;;;;4980892;28;89699;-69
2023/07/15 03:26:53;;;;;;;2.72;2.42;;;15.20;92.50;15.20;100175.00;;;;4968599;28;87512;-70
2023/07/15 03:29:20;;;;;;;3.22;2.55;;;15.20;92.60;15.20;100184.00;;;;4976453;28;87583;-69
2023/07/15 03:31:46;;;;;;;2.22;2.05;;;15.10;92.80;15.10;100164.00;;;;4986350;28;86962;-68
2023/07/15 03:34:13;;;;;;;2.80;1.75;;;15.10;92.90;15.10;100173.00;;;;4977596;28;87571;-69
2023/07/15 03:36:38;;;;;;;3.38;2.20;;;15.10;93.20;15.10;100178.00;;;;4969228;28;87567;-69
2023/07/15 03:39:05;;;;;;;2.85;1.80;;;15.00;93.30;15.00;100169.00;;;;4977721;28;86831;-70
2023/07/15 03:41:32;;;;;;;2.83;2.63;;;15.00;93.50;15.00;100163.00;;;;4978471;28;87047;-70
2023/07/15 03:43:59;;;;;;;2.53;2.33;;;14.90;93.70;15.00;100169.00;;;;4973611;28;87482;-70
2023/07/15 03:46:24;;;;;;;4.30;2.63;;;14.90;94.00;14.90;100166.00;;;;4962635;28;89196;-69
2023/07/15 03:48:50;;;;;;;2.70;2.50;;;14.90;94.30;14.90;100165.00;;;;4971973;28;86987;-69
2023/07/15 03:51:16;;;;;;;4.25;2.63;;;14.80;94.40;14.90;100169.00;;;;4970513;28;87309;-69
2023/07/15 03:53:42;;;;;;;2.53;2.33;;;14.90;94.70;14.90;100163.00;;;;4977696;28;87834;-69
2023/07/15 03:56:08;;;;;;;2.40;2.20;;;14.90;94.80;15.00;100167.00;;;;4974582;28;87746;-69
2023/07/15 03:58:34;;;;;;;2.35;2.15;;;14.90;95.00;15.00;100176.00;;;;4967338;28;87120;-69
2023/07/15 04:01:00;;;;;;;5.55;2.28;;;14.90;95.10;15.10;100169.00;;;;4970536;28;87558;-69
2023/07/15 04:03:26;;;;;;;2.70;2.28;;;15.00;95.10;15.20;100175.00;;;;4975366;28;86941;-69
2023/07/15 04:05:52;;;;;;;2.05;1.90;;;15.10;95.30;15.30;100177.00;;;;4974183;28;87095;-69
2023/07/15 04:08:21;;;;;;;3.38;2.10;;;15.20;95.50;15.40;100170.00;;;;4958176;28;87399;-69
2023/07/15 04:10:47;;;;;;;7.55;2.60;;;15.20;95.60;15.50;100172.00;;;;4978590;28;89011;-69
2023/07/15 04:13:13;;;;;;;3.08;2.50;;;15.40;95.90;15.60;100163.00;;;;4971675;28;87971;-69
2023/07/15 04:15:39;;;;;;;3.58;2.60;;;15.40;96.10;15.70;100165.00;;;;4954819;28;87294;-69
2023/07/15 04:18:05;;;;;;;2.40;2.00;;;15.50;96.20;15.80;100170.00;;;;4980283;28;87773;-69
2023/07/15 04:20:31;;;;;;;2.70;2.50;;;15.70;96.20;15.90;100169.00;;;;4981095;28;87521;-68
2023/07/15 04:22:57;;;;;;;3.35;2.30;;;15.80;96.20;16.10;100175.00;;;;4957346;28;87479;-69
2023/07/15 04:25:23;;;;;;;3.88;1.52;;;15.90;96.30;16.20;100172.00;;;;4969379;28;87836;-69
2023/07/15 04:27:49;;;;;;;5.03;2.17;;;16.00;96.40;16.40;100166.00;;;;4980239;28;86550;-69
2023/07/15 04:30:16;;;;;;;2.47;2.22;;;16.20;96.40;16.50;100157.00;;;;4965841;28;87527;-69
2023/07/15 04:32:42;;;;;;;3.50;2.25;;;16.30;96.40;16.70;100159.00;;;;4969295;28;89372;-70
2023/07/15 04:35:08;;;;;;;2.25;1.95;;;16.50;96.40;16.80;100161.00;;;;4976204;28;88252;-69
2023/07/15 04:37:35;;;;;;;1.92;1.70;;;16.70;96.30;17.00;100162.00;;;;4982252;28;87419;-70
2023/07/15 04:40:03;;;;;;;2.90;1.92;;;16.80;96.40;17.10;100162.00;;;;4986950;28;87116;-70
2023/07/15 04:42:29;;;;;;;2.33;2.08;;;16.90;96.30;17.20;100155.00;;;;4974762;28;88103;-69
2023/07/15 04:44:55;;;;;;;2.22;2.03;;;17.10;96.20;17.40;100159.00;;;;4978316;28;87377;-69
2023/07/15 04:47:21;;;;;;;2.75;2.38;;;17.20;96.10;17.50;100166.00;;;;4973360;28;88921;-69
2023/07/15 04:49:47;;;;;;;2.05;1.83;;;17.30;96.00;17.60;100163.00;;;;4981510;28;87702;-69
2023/07/15 04:52:12;;;;;;;2.08;1.67;;;17.40;95.90;17.70;100164.00;;;;4977725;28;87351;-70
2023/07/15 04:54:38;;;;;;;1.90;1.70;;;17.60;95.80;17.90;100162.00;;;;4979805;28;87666;-71
2023/07/15 04:57:04;;;;;;;3.78;2.25;;;17.70;95.70;18.00;100170.00;;;;4964758;28;88582;-70
2023/07/15 04:59:30;;;;;;;2.75;2.10;;;17.80;95.50;18.10;100165.00;;;;4977774;28;88338;-69
2023/07/15 05:01:56;;;;;;;2.45;2.25;;;17.90;95.30;18.20;100165.00;;;;4975389;28;87595;-68
2023/07/15 05:04:22;;;;;;;2.45;1.90;;;18.00;95.20;18.40;100168.00;;;;4979403;28;118331;-70
2023/07/15 05:06:47;;;;;;;1.85;1.75;;;18.20;95.00;18.50;100166.00;;;;4975045;28;87649;-70
2023/07/15 05:09:13;;;;;;;2.20;1.92;;;18.30;94.80;18.60;100164.00;;;;4976353;28;87461;-68
2023/07/15 05:11:39;;;;;;;2.33;2.13;;;18.40;94.60;18.70;100163.00;;;;4962757;28;89327;-69
2023/07/15 05:14:05;;;;;;;2.40;1.77;;;18.50;94.40;18.90;100166.00;;;;4970330;28;88801;-69
2023/07/15 05:16:31;;;;;;;1.88;1.70;;;18.70;94.20;19.10;100166.00;;;;4973439;28;86850;-69
2023/07/15 05:18:57;;;;;;;1.98;1.35;;;18.80;93.90;19.20;100164.00;;;;4974723;28;102405;-69
2023/07/15 05:21:22;;;;;;;6.15;2.05;;;19.00;93.50;19.50;100169.00;;;;4972299;28;117362;-70
2023/07/15 05:23:48;;;;;;;2.20;1.92;;;19.20;93.10;19.70;100165.00;;;;4970866;28;88064;-69
2023/07/15 05:26:14;;;;;;;1.35;1.25;;;20.50;93.00;19.90;100159.00;;;;4972812;28;87882;-68
2023/07/15 05:28:40;;;;;;;2.35;1.77;;;19.60;92.00;20.10;100174.00;;;;4977677;28;88515;-69
2023/07/15 05:31:05;;;;;;;2.22;1.35;;;19.80;91.70;20.30;100169.00;;;;4975724;28;87634;-69
2023/07/15 05:33:31;;;;;;;2.13;1.83;;;20.00;91.30;20.50;100161.00;;;;4977289;28;88641;-69
2023/07/15 05:35:58;;;;;;;1.77;1.50;;;20.20;91.00;20.80;100169.00;;;;4974271;28;87455;-67
2023/07/15 05:38:26;;;;;;;1.55;1.45;;;20.40;90.50;21.00;100171.00;;;;4969396;28;87448;-69
2023/07/15 05:40:53;;;;;;;4.28;1.80;;;20.70;90.10;21.20;100164.00;;;;4971569;28;88141;-69
2023/07/15 05:43:19;;;;;;;2.45;1.92;;;20.90;89.70;21.50;100160.00;;;;4974225;28;87916;-68
2023/07/15 05:45:46;;;;;;;2.88;1.67;;;21.20;89.00;21.80;100170.00;;;;4973438;28;87190;-69
2023/07/15 05:48:12;;;;;;;2.13;1.80;;;21.40;88.80;22.00;100163.00;;;;4969628;28;88877;-69
2023/07/15 05:50:38;;;;;;;1.35;1.25;;;21.70;87.20;22.30;100160.00;;;;4971715;28;87897;-69
2023/07/15 05:53:05;;;;;;;1.40;1.15;;;22.00;85.70;22.60;100160.00;;;;4971915;28;88431;-69
2023/07/15 05:55:34;;;;;;;1.20;1.10;;;22.30;85.30;22.90;100168.00;;;;4968013;28;87702;-69
2023/07/15 05:58:01;;;;;;;3.95;1.33;;;22.60;83.00;23.10;100163.00;;;;4966094;28;87075;-68
2023/07/15 06:00:28;;;;;;;1.48;0.88;;;22.80;79.60;23.30;100164.00;;;;4969721;28;87620;-68
2023/07/15 06:02:54;;;;;;;2.97;1.52;;;23.10;77.80;23.60;100163.00;;;;4966163;28;87582;-69
2023/07/15 06:05:20;;;;;;;1.25;1.15;;;23.30;77.20;23.80;100158.00;;;;4966781;28;86663;-68
2023/07/15 06:07:48;;;;;;;2.65;1.27;;;23.50;76.50;24.10;100164.00;;;;4969794;28;104190;-68
2023/07/15 06:10:17;;;;;;;1.75;1.08;;;23.80;74.40;24.30;100156.00;;;;4966437;28;87675;-66
2023/07/15 06:12:43;;;;;;;3.05;1.20;;;24.00;72.90;24.60;100159.00;;;;4967268;28;88446;-68
2023/07/15 06:15:11;;;;;;;1.33;1.00;;;24.30;72.30;24.90;100155.00;;;;4970555;28;86975;-68
2023/07/15 06:17:38;;;;;;;1.45;1.25;;;24.50;70.50;25.10;100155.00;;;;4974275;28;87072;-68
2023/07/15 06:20:05;;;;;;;1.98;1.35;;;24.80;68.40;25.30;100164.00;;;;4976546;28;87613;-69
2023/07/15 06:22:31;;;;;;;1.77;0.82;;;25.00;68.00;25.60;100158.00;;;;4972001;28;87644;-69
2023/07/15 06:24:57;;;;;;;3.53;1.17;;;25.30;67.00;25.90;100165.00;;;;4967819;28;87653;-68
2023/07/15 06:27:23;;;;;;;0.93;0.93;;;25.60;65.70;26.10;100164.00;;;;4967112;28;87346;-68
2023/07/15 06:29:50;;;;;;;0.68;0.65;;;25.80;63.00;26.40;100158.00;;;;4976108;28;86996;-67
2023/07/15 06:32:16;;;;;;;1.10;0.90;;;26.00;60.70;26.50;100158.00;;;;4970108;28;87560;-68
2023/07/15 06:34:41;;;;;;;1.05;0.95;;;26.20;59.20;26.70;100162.00;;;;4975212;28;86996;-69
2023/07/15 06:37:07;;;;;;;1.30;1.15;;;26.40;58.70;26.80;100169.00;;;;4955221;28;88350;-69
2023/07/15 06:39:33;;;;;;;1.85;1.00;;;26.50;58.70;27.00;100159.00;;;;4973483;28;87968;-68
2023/07/15 06:41:59;;;;;;;1.13;1.02;;;26.70;58.10;27.20;100162.00;;;;4952706;28;87733;-69
2023/07/15 06:44:25;;;;;;;0.75;0.63;;;26.90;56.50;27.30;100160.00;;;;4973846;28;87091;-70
2023/07/15 06:46:51;;;;;;;1.48;1.00;;;27.00;56.00;27.50;100161.00;;;;4974803;28;87517;-69
2023/07/15 06:49:17;;;;;;;1.70;0.70;;;27.20;55.60;27.60;100160.00;;;;4969291;28;87674;-70
2023/07/15 06:51:43;;;;;;;2.63;0.70;;;27.30;55.50;27.80;100161.00;;;;4953866;28;87173;-69
2023/07/15 06:54:09;;;;;;;1.00;0.93;;;27.50;55.80;28.10;100157.00;;;;4939977;28;87236;-69
2023/07/15 06:56:35;;;;;;;1.65;1.00;;;27.70;54.60;28.30;100163.00;;;;4972684;28;87501;-69
2023/07/15 06:59:01;;;;;;;0.93;0.85;;;27.90;54.60;28.40;100166.00;;;;4956055;28;87972;-69
2023/07/15 07:01:26;;;;;;;1.60;0.80;;;28.10;53.60;28.60;100156.00;;;;4971051;28;88365;-70
2023/07/15 07:03:53;;;;;;;1.10;0.80;;;28.30;53.70;28.90;100159.00;;;;4975547;28;87316;-68
2023/07/15 07:06:20;;;;;;;2.35;1.02;;;28.50;52.50;29.00;100157.00;;;;4972243;28;87314;-70
2023/07/15 07:08:46;;;;;;;1.83;1.13;;;28.70;52.20;29.20;100157.00;;;;4968032;28;87472;-69
2023/07/15 07:11:12;;;;;;;0.88;0.85;;;28.80;51.10;29.30;100160.00;;;;4971759;28;87676;-68
2023/07/15 07:13:38;;;;;;;1.25;0.77;;;29.00;50.50;29.40;100157.00;;;;4977527;28;87093;-70
2023/07/15 07:16:05;;;;;;;1.50;1.25;;;29.10;50.00;29.60;100156.00;;;;4979031;28;87449;-70
2023/07/15 07:18:31;;;;;;;1.17;0.88;;;29.20;49.30;29.70;100158.00;;;;4978480;28;86587;-70
2023/07/15 07:21:01;;;;;;;1.48;0.85;;;29.30;48.50;29.70;100156.00;;;;4977535;28;87496;-70
2023/07/15 07:23:37;;;;;;;;;;;;;;;;;;;;;
2023/07/15 07:26:03;;;;;;;2.42;0.88;;;29.50;48.40;30.00;100150.00;;;;4963738;28;107751;-71
2023/07/15 07:28:45;;;;;;;2.00;0.77;;;29.70;48.10;30.30;100151.00;;;;4985459;27;89374;-70
2023/07/15 07:31:12;;;;;;;4.05;0.80;;;29.90;48.00;30.50;100145.00;;;;4962712;28;116522;-70
2023/07/15 07:33:41;;;;;;;0.90;0.70;;;30.10;47.70;30.70;100147.00;;;;4988548;27;87481;-71
2023/07/15 07:36:07;;;;;;;1.08;0.65;;;30.30;47.30;30.80;100140.00;;;;4953868;28;87574;-70
2023/07/15 07:38:33;;;;;;;0.73;0.70;;;30.40;46.30;31.00;100140.00;;;;4972929;28;88074;-72
2023/07/15 07:41:07;;;;;;;0.55;0.50;;;30.60;46.00;31.10;100140.00;;;;4952955;28;87635;-70
2023/07/15 07:43:45;;;;;;;1.05;0.95;;;30.80;46.20;31.30;100142.00;;;;4969121;28;86405;-69
2023/07/15 07:46:11;;;;;;;0.45;0.32;;;31.00;46.00;31.50;100137.00;;;;4947343;28;87421;-71
2023/07/15 07:48:46;;;;;;;0.68;0.68;;;31.10;45.30;31.60;100132.00;;;;4969539;28;87908;-70
2023/07/15 07:51:12;;;;;;;1.20;0.60;;;31.30;44.90;31.70;100139.00;;;;4974465;28;88546;-71
2023/07/15 07:53:41;;;;;;;1.30;1.10;;;31.40;44.70;31.90;100143.00;;;;4971725;28;88213;-70
2023/07/15 07:56:11;;;;;;;1.02;0.73;;;31.50;43.80;31.90;100133.00;;;;4973945;28;87563;-70
2023/07/15 07:58:40;;;;;;;4.45;1.20;;;31.60;44.20;32.10;100134.00;;;;4968086;28;87848;-71
2023/07/15 08:01:27;;;;;;;0.70;0.70;;;31.70;44.10;32.20;100126.00;;;;4971701;28;87342;-72
2023/07/15 08:03:55;;;;;;;0.52;0.52;;;31.90;43.80;32.40;100124.00;;;;4972958;28;87515;-71
2023/07/15 08:06:21;;;;;;;0.88;0.80;;;32.10;43.40;32.60;100117.00;;;;4971787;28;87081;-72
2023/07/15 08:08:50;;;;;;;0.60;0.60;;;32.20;43.10;32.80;100122.00;;;;4969749;28;87987;-71
2023/07/15 08:11:16;;;;;;;0.98;0.77;;;32.40;43.00;33.00;100126.00;;;;4973250;28;87465;-70
2023/07/15 08:13:42;;;;;;;1.92;0.80;;;32.60;42.00;33.00;100116.00;;;;4970769;28;87301;-71
2023/07/15 08:16:30;;;;;;;4.10;1.15;;;32.70;41.90;33.10;100118.00;;;;4967366;28;88332;-71
2023/07/15 08:18:57;;;;;;;2.08;1.25;;;32.80;41.80;33.20;100120.00;;;;4967869;28;87917;-71
2023/07/15 08:21:26;;;;;;;0.50;0.50;;;32.90;41.40;33.30;100113.00;;;;4970740;28;87685;-71
2023/07/15 08:24:01;;;;;;;1.95;1.00;;;32.90;41.60;33.50;100119.00;;;;4959665;28;87211;-72
2023/07/15 08:26:27;;;;;;;1.40;0.75;;;33.10;40.70;33.50;100114.00;;;;4974535;28;87360;-72
2023/07/15 08:29:11;;;;;;;1.05;0.75;;;33.20;40.20;33.50;100119.00;;;;4984097;28;89519;-72
2023/07/15 08:31:39;;;;;;;2.65;0.98;;;33.20;40.60;33.50;100113.00;;;;4990518;27;87117;-71
2023/07/15 08:34:05;;;;;;;1.95;1.27;;;33.20;40.50;33.60;100105.00;;;;4975428;28;86308;-72
2023/07/15 08:36:31;;;;;;;0.90;0.65;;;33.20;40.10;33.60;100106.00;;;;4974668;28;87437;-72
2023/07/15 08:38:57;;;;;;;0.38;0.32;;;33.30;40.10;33.70;100103.00;;;;4985226;27;87513;-72
2023/07/15 08:41:26;;;;;;;1.30;0.82;;;33.30;40.30;33.80;100106.00;;;;4989314;27;89078;-73
2023/07/15 08:43:55;;;;;;;0.70;0.70;;;33.50;40.10;33.80;100119.00;;;;4975126;28;87358;-71
2023/07/15 08:46:51;;;;;;;0.50;0.50;;;33.50;39.80;33.90;100113.00;;;;4974118;28;87876;-70
2023/07/15 08:49:40;;;;;;;2.10;1.15;;;33.60;39.30;33.80;100105.00;;;;4979192;28;90870;-73
2023/07/15 08:52:19;;;;;;;0.52;0.52;;;33.60;39.50;33.90;100110.00;;;;4966223;28;87068;-71
2023/07/15 08:55:06;;;;;;;1.45;0.95;;;33.60;39.40;34.00;100118.00;;;;4975385;28;87600;-71
2023/07/15 08:57:33;;;;;;;1.65;1.05;;;33.70;39.40;34.10;100121.00;;;;4958356;28;87194;-72
2023/07/15 08:59:59;;;;;;;1.13;0.95;;;33.80;39.30;34.20;100113.00;;;;4973986;28;86921;-71
2023/07/15 09:02:25;;;;;;;1.45;1.05;;;33.80;39.10;34.30;100120.00;;;;4977719;28;87823;-71
2023/07/15 09:05:17;;;;;;;1.38;0.88;;;33.90;38.90;34.30;100114.00;;;;4977045;28;87589;-72
2023/07/15 09:08:05;;;;;;;1.70;0.80;;;34.00;38.20;34.20;100114.00;;;;4980105;28;88881;-72
2023/07/15 09:10:31;;;;;;;0.80;0.80;;;33.90;38.10;34.20;100109.00;;;;4958546;28;87844;-72
2023/07/15 09:12:58;;;;;;;1.80;1.27;;;33.90;38.40;34.30;100124.00;;;;4977856;28;88021;-71
2023/07/15 09:15:31;;;;;;;1.48;1.10;;;33.90;38.10;34.30;100123.00;;;;4978849;28;87773;-72
2023/07/15 09:18:01;;;;;;;2.85;0.77;;;33.90;38.00;34.20;100114.00;;;;4980927;28;87206;-69
2023/07/15 09:20:29;;;;;;;1.23;1.02;;;33.90;37.40;34.10;100127.00;;;;4958976;28;89300;-73
2023/07/15 09:23:22;;;;;;;3.17;1.10;;;33.80;37.60;34.10;100120.00;;;;4981309;28;87503;-70
2023/07/15 09:25:54;;;;;;;0.82;0.77;;;33.80;38.00;34.30;100118.00;;;;4963378;28;86814;-69
2023/07/15 09:28:21;;;;;;;2.30;1.02;;;33.90;37.60;34.50;100127.00;;;;4972764;28;87777;-70
2023/07/15 09:30:48;;;;;;;1.20;0.98;;;34.00;37.50;34.50;100111.00;;;;4979477;28;87609;-71
2023/07/15 09:33:51;;;;;;;3.70;1.05;;;34.10;37.30;34.70;100109.00;;;;4969824;28;88057;-72
2023/07/15 09:36:38;;;;;;;1.00;0.73;;;34.20;37.60;34.90;100106.00;;;;4968597;28;87720;-71
2023/07/15 09:39:18;;;;;;;1.23;0.80;;;34.40;37.10;35.00;100105.00;;;;4973700;28;87403;-72
2023/07/15 09:43:00;;;;;;;1.88;1.02;;;34.50;36.00;35.00;100107.00;;;;4920998;27;90373;-71
2023/07/15 09:45:02;;;;;;;0.85;0.63;;;34.60;35.30;34.80;100109.00;;;;4936506;28;87707;-72
2023/07/15 09:47:29;;;;;;;0.93;0.70;;;34.50;34.50;34.80;100098.00;;;;4953497;28;87274;-70
2023/07/15 09:49:54;;;;;;;1.42;0.77;;;34.40;34.40;34.90;100102.00;;;;4944213;28;87703;-68
2023/07/15 09:52:20;;;;;;;0.70;0.60;;;34.40;34.00;34.90;100099.00;;;;4947442;28;89148;-68
2023/07/15 09:54:46;;;;;;;1.40;0.82;;;34.40;34.50;35.00;100102.00;;;;4948891;28;117430;-67
2023/07/15 09:57:14;;;;;;;3.53;0.88;;;34.50;33.90;35.00;100091.00;;;;4940178;28;111628;-67
2023/07/15 09:59:46;;;;;;;1.35;0.82;;;34.50;34.10;35.10;100090.00;;;;4950630;28;88687;-67
2023/07/15 10:02:45;;;;;;;0.98;0.88;;;34.60;34.40;35.30;100080.00;;;;4956165;28;89204;-68
2023/07/15 10:05:13;;;;;;;3.45;0.80;;;34.80;34.40;35.50;100088.00;;;;4995965;27;91799;-67
2023/07/15 10:07:42;;;;;;;1.23;0.60;;;34.90;33.70;35.70;100085.00;;;;4969939;28;88042;-69
2023/07/15 10:10:08;;;;;;;0.47;0.47;;;35.10;33.40;36.10;100096.00;;;;4993059;27;87827;-67
2023/07/15 10:12:36;;;;;;;1.25;0.75;;;35.40;33.30;36.30;100095.00;;;;4964856;27;89768;-69
2023/07/15 10:15:03;;;;;;;1.45;0.68;;;35.70;33.00;36.50;100101.00;;;;4969742;28;89023;-69
2023/07/15 10:17:39;;;;;;;2.05;0.70;;;35.90;32.40;36.50;100092.00;;;;4967643;28;87659;-68
2023/07/15 10:20:12;;;;;;;0.77;0.60;;;36.00;32.40;36.60;100101.00;;;;4963821;28;88225;-68
2023/07/15 10:22:40;;;;;;;0.95;0.60;;;36.00;31.60;36.70;100095.00;;;;4966712;28;88316;-68
2023/07/15 10:25:12;;;;;;;1.42;0.75;;;36.10;31.20;36.80;100092.00;;;;4967226;28;107594;-69
2023/07/15 10:27:39;;;;;;;1.00;0.70;;;36.20;30.60;36.90;100097.00;;;;4968561;28;87745;-69
2023/07/15 10:30:26;;;;;;;0.70;0.55;;;36.30;30.00;37.00;100096.00;;;;4919382;28;88223;-67
2023/07/15 10:33:01;;;;;;;0.90;0.55;;;36.40;29.90;37.10;100092.00;;;;4967310;28;87642;-69
2023/07/15 10:35:28;;;;;;;0.65;0.50;;;36.50;29.90;37.10;100087.00;;;;4965150;28;101931;-68
2023/07/15 10:37:57;;;;;;;2.17;0.60;;;36.50;29.60;37.20;100084.00;;;;4965920;28;88080;-69
2023/07/15 10:40:47;;;;;;;0.68;0.60;;;36.60;29.80;37.30;100083.00;;;;4970053;28;87824;-69
2023/07/15 10:43:24;;;;;;;1.17;0.45;;;36.70;29.90;37.30;100099.00;;;;4968613;28;87188;-69
2023/07/15 10:45:54;;;;;;;1.70;1.02;;;36.70;29.70;37.30;100096.00;;;;4963462;28;109972;-70
2023/07/15 10:48:22;;;;;;;1.75;0.60;;;36.70;29.90;37.30;100094.00;;;;4964873;28;88312;-70
2023/07/15 10:50:51;;;;;;;1.30;0.82;;;36.70;29.90;37.20;100093.00;;;;4964099;28;88972;-69
2023/07/15 10:53:22;;;;;;;0.80;0.80;;;36.70;29.90;37.30;100088.00;;;;4961109;28;88656;-69
2023/07/15 10:55:59;;;;;;;2.55;0.82;;;36.70;30.10;37.40;100089.00;;;;4966388;28;88203;-67